createdAt,value
2022-12-31T00:01:52.224Z,21.47
2022-12-31T00:04:19.059Z,21.47
2022-12-31T00:06:47.186Z,21.47
2022-12-31T00:09:14.028Z,21.46
2022-12-31T00:11:40.990Z,21.46
2022-12-31T00:14:08.127Z,21.47
2022-12-31T00:16:38.159Z,21.47
2022-12-31T00:19:07.479Z,21.48
2022-12-31T00:21:35.332Z,21.47
2022-12-31T00:24:04.520Z,21.47
2022-12-31T00:26:33.287Z,21.45
2022-12-31T00:29:01.444Z,21.46
2022-12-31T00:31:31.557Z,21.45
2022-12-31T00:33:59.359Z,21.46
2022-12-31T00:36:31.906Z,21.46
2022-12-31T00:39:00.157Z,21.46
2022-12-31T00:41:28.212Z,21.47
2022-12-31T00:43:55.737Z,21.47
2022-12-31T00:46:22.839Z,21.47
2022-12-31T00:48:50.302Z,21.47
2022-12-31T00:51:20.996Z,21.48
2022-12-31T00:53:47.827Z,21.47
2022-12-31T00:56:18.673Z,21.47
2022-12-31T00:58:46.143Z,21.47
2022-12-31T01:01:20.465Z,21.48
2022-12-31T01:03:48.922Z,21.48
2022-12-31T01:06:16.229Z,21.48
2022-12-31T01:08:43.193Z,21.46
2022-12-31T01:11:22.743Z,21.45
2022-12-31T01:14:13.175Z,21.43
2022-12-31T01:16:52.234Z,21.45
2022-12-31T01:19:25.771Z,21.46
2022-12-31T01:21:53.324Z,21.45
2022-12-31T01:24:20.880Z,21.44
2022-12-31T01:26:50.963Z,21.45
2022-12-31T01:29:18.050Z,21.42
2022-12-31T01:31:44.892Z,21.41
2022-12-31T01:34:11.911Z,21.41
2022-12-31T01:36:39.140Z,21.44
2022-12-31T01:39:08.321Z,21.41
2022-12-31T01:41:38.063Z,21.40
2022-12-31T01:44:13.808Z,21.41
2022-12-31T01:46:42.452Z,21.42
2022-12-31T01:49:40.129Z,21.44
2022-12-31T01:52:11.073Z,21.40
2022-12-31T01:54:43.362Z,21.41
2022-12-31T01:57:12.316Z,21.40
2022-12-31T01:59:39.259Z,21.41
2022-12-31T02:02:06.483Z,21.40
2022-12-31T02:04:33.454Z,21.39
2022-12-31T02:07:03.632Z,21.41
2022-12-31T02:09:32.459Z,21.41
2022-12-31T02:11:59.941Z,21.40
2022-12-31T02:14:33.910Z,21.42
2022-12-31T02:17:09.806Z,21.41
2022-12-31T02:19:54.823Z,21.40
2022-12-31T02:22:44.209Z,21.39
2022-12-31T02:25:31.661Z,21.41
2022-12-31T02:28:13.360Z,21.39
2022-12-31T02:30:42.554Z,21.37
2022-12-31T02:33:33.175Z,21.38
2022-12-31T02:36:06.185Z,21.38
2022-12-31T02:38:39.029Z,21.37
2022-12-31T02:41:05.858Z,21.38
2022-12-31T02:43:32.639Z,21.39
2022-12-31T02:46:19.643Z,21.37
2022-12-31T02:49:01.786Z,21.37
2022-12-31T02:51:46.002Z,21.37
2022-12-31T02:54:33.778Z,21.36
2022-12-31T02:57:12.217Z,21.37
2022-12-31T03:00:11.819Z,21.36
2022-12-31T03:02:43.658Z,21.36
2022-12-31T03:05:13.060Z,21.37
2022-12-31T03:07:41.792Z,21.37
2022-12-31T03:10:09.232Z,21.36
2022-12-31T03:12:48.948Z,21.36
2022-12-31T03:15:33.240Z,21.37
2022-12-31T03:18:04.709Z,21.35
2022-12-31T03:20:57.975Z,21.35
2022-12-31T03:23:31.482Z,21.34
2022-12-31T03:25:59.916Z,21.34
2022-12-31T03:28:30.988Z,21.35
2022-12-31T03:31:01.632Z,21.36
2022-12-31T03:33:40.718Z,21.34
2022-12-31T03:36:16.568Z,21.36
2022-12-31T03:38:44.745Z,21.34
2022-12-31T03:41:13.268Z,21.33
2022-12-31T03:43:40.025Z,21.34
2022-12-31T03:46:08.985Z,21.34
2022-12-31T03:48:35.828Z,21.33
2022-12-31T03:51:05.006Z,21.32
2022-12-31T03:53:32.206Z,21.34
2022-12-31T03:55:58.972Z,21.32
2022-12-31T03:58:25.830Z,21.34
2022-12-31T04:00:52.740Z,21.34
2022-12-31T04:03:19.683Z,21.33
2022-12-31T04:05:53.323Z,21.34
2022-12-31T04:08:20.086Z,21.33
2022-12-31T04:10:46.870Z,21.33
2022-12-31T04:13:13.653Z,21.33
2022-12-31T04:15:40.551Z,21.31
2022-12-31T04:18:07.325Z,21.31
2022-12-31T04:20:34.251Z,21.34
2022-12-31T04:23:01.054Z,21.30
2022-12-31T04:25:27.829Z,21.32
2022-12-31T04:27:54.653Z,21.31
2022-12-31T04:30:21.444Z,21.32
2022-12-31T04:32:48.246Z,21.32
2022-12-31T04:35:15.082Z,21.31
2022-12-31T04:37:41.872Z,21.30
2022-12-31T04:40:09.555Z,21.31
2022-12-31T04:42:36.769Z,21.29
2022-12-31T04:45:05.017Z,21.30
2022-12-31T04:47:32.010Z,21.31
2022-12-31T04:49:58.906Z,21.30
2022-12-31T04:52:25.865Z,21.30
2022-12-31T04:54:52.639Z,21.31
2022-12-31T04:57:19.433Z,21.30
2022-12-31T04:59:46.219Z,21.29
2022-12-31T05:02:13.150Z,21.30
2022-12-31T05:04:40.035Z,21.30
2022-12-31T05:07:06.913Z,21.30
2022-12-31T05:09:33.758Z,21.28
2022-12-31T05:12:00.697Z,21.28
2022-12-31T05:14:27.549Z,21.30
2022-12-31T05:16:54.672Z,21.29
2022-12-31T05:19:21.544Z,21.30
2022-12-31T05:22:08.969Z,21.29
2022-12-31T05:24:36.206Z,21.29
2022-12-31T05:27:03.512Z,21.29
2022-12-31T05:29:35.580Z,21.29
2022-12-31T05:32:02.381Z,21.28
2022-12-31T05:34:30.558Z,21.29
2022-12-31T05:36:57.368Z,21.29
2022-12-31T05:39:24.131Z,21.28
2022-12-31T05:41:51.460Z,21.28
2022-12-31T05:44:18.308Z,21.26
2022-12-31T05:46:45.085Z,21.28
2022-12-31T05:49:11.856Z,21.27
2022-12-31T05:51:38.777Z,21.28
2022-12-31T05:54:05.719Z,21.26
2022-12-31T05:56:32.478Z,21.29
2022-12-31T05:59:00.726Z,21.30
2022-12-31T06:01:27.566Z,21.29
2022-12-31T06:03:54.495Z,21.26
2022-12-31T06:06:21.335Z,21.26
2022-12-31T06:08:51.715Z,21.25
2022-12-31T06:11:18.543Z,21.27
2022-12-31T06:13:45.366Z,21.25
2022-12-31T06:16:12.328Z,21.25
2022-12-31T06:18:39.470Z,21.29
2022-12-31T06:21:06.624Z,21.26
2022-12-31T06:23:33.411Z,21.27
2022-12-31T06:26:04.596Z,21.25
2022-12-31T06:28:31.654Z,21.24
2022-12-31T06:31:07.079Z,21.27
2022-12-31T06:33:35.083Z,21.26
2022-12-31T06:36:04.480Z,21.25
2022-12-31T06:38:33.678Z,21.24
2022-12-31T06:41:08.784Z,21.26
2022-12-31T06:43:36.504Z,21.28
2022-12-31T06:46:05.333Z,21.25
2022-12-31T06:48:32.633Z,21.23
2022-12-31T06:51:19.893Z,21.23
2022-12-31T06:53:48.642Z,21.19
2022-12-31T06:56:33.970Z,21.16
2022-12-31T06:59:02.875Z,21.20
2022-12-31T07:02:06.529Z,21.22
2022-12-31T07:04:51.421Z,21.19
2022-12-31T07:07:23.962Z,21.20
2022-12-31T07:10:17.791Z,21.18
2022-12-31T07:12:57.629Z,21.18
2022-12-31T07:15:44.895Z,21.18
2022-12-31T07:18:27.208Z,21.20
2022-12-31T07:20:54.271Z,21.17
2022-12-31T07:23:21.391Z,21.18
2022-12-31T07:26:00.294Z,21.18
2022-12-31T07:29:05.330Z,21.21
2022-12-31T07:32:06.008Z,21.21
2022-12-31T07:34:54.419Z,21.20
2022-12-31T07:37:39.637Z,21.11
2022-12-31T07:40:15.057Z,21.16
2022-12-31T07:43:24.198Z,21.25
2022-12-31T07:46:16.927Z,21.33
2022-12-31T07:48:44.354Z,21.32
2022-12-31T07:51:12.011Z,21.32
2022-12-31T07:53:39.522Z,21.30
2022-12-31T07:56:08.941Z,21.31
2022-12-31T07:58:57.781Z,21.30
2022-12-31T08:01:41.657Z,21.28
2022-12-31T08:04:28.143Z,21.25
2022-12-31T08:07:26.048Z,21.10
2022-12-31T08:10:17.276Z,20.94
2022-12-31T08:12:47.087Z,21.03
2022-12-31T08:15:16.010Z,21.05
2022-12-31T08:17:43.624Z,21.03
2022-12-31T08:20:15.974Z,20.95
2022-12-31T08:22:45.476Z,21.11
2022-12-31T08:25:53.325Z,21.24
2022-12-31T08:28:42.808Z,21.24
2022-12-31T08:31:24.715Z,21.21
2022-12-31T08:34:12.221Z,21.20
2022-12-31T08:37:06.592Z,21.16
2022-12-31T08:40:16.617Z,21.14
2022-12-31T08:43:09.381Z,21.13
2022-12-31T08:45:41.918Z,21.05
2022-12-31T08:48:27.207Z,21.02
2022-12-31T08:50:54.860Z,21.03
2022-12-31T08:53:21.889Z,21.05
2022-12-31T08:55:52.928Z,21.13
2022-12-31T08:58:32.460Z,21.21
2022-12-31T09:00:59.710Z,21.15
2022-12-31T09:03:45.082Z,21.12
2022-12-31T09:06:29.554Z,21.03
2022-12-31T09:09:13.676Z,21.06
2022-12-31T09:12:18.290Z,21.08
2022-12-31T09:15:14.982Z,21.08
2022-12-31T09:17:50.571Z,21.07
2022-12-31T09:20:44.731Z,21.01
2022-12-31T09:23:13.333Z,20.99
2022-12-31T09:26:14.413Z,21.00
2022-12-31T09:29:18.535Z,21.05
2022-12-31T09:32:00.122Z,20.91
2022-12-31T09:34:45.380Z,20.96
2022-12-31T09:37:38.149Z,21.01
2022-12-31T09:40:28.696Z,21.03
2022-12-31T09:43:33.312Z,20.92
2022-12-31T09:46:42.657Z,20.84
2022-12-31T09:49:24.641Z,20.84
2022-12-31T09:52:12.999Z,20.88
2022-12-31T09:55:07.420Z,20.92
2022-12-31T09:58:00.015Z,20.93
2022-12-31T10:01:03.938Z,20.94
2022-12-31T10:04:07.941Z,20.96
2022-12-31T10:07:00.697Z,20.95
2022-12-31T10:09:27.398Z,20.97
2022-12-31T10:11:56.764Z,20.95
2022-12-31T10:14:26.379Z,20.96
2022-12-31T10:17:13.919Z,20.96
2022-12-31T10:19:55.517Z,20.94
2022-12-31T10:22:36.905Z,20.96
2022-12-31T10:25:41.311Z,20.94
2022-12-31T10:28:23.005Z,20.94
2022-12-31T10:31:20.953Z,20.92
2022-12-31T10:34:17.287Z,20.94
2022-12-31T10:37:17.864Z,20.93
2022-12-31T10:40:03.317Z,20.91
2022-12-31T10:42:48.638Z,20.92
2022-12-31T10:45:21.107Z,20.91
2022-12-31T10:47:50.898Z,20.92
2022-12-31T10:50:39.562Z,20.92
2022-12-31T10:53:29.370Z,20.92
2022-12-31T10:56:14.532Z,20.86
2022-12-31T10:58:53.290Z,20.89
2022-12-31T11:01:35.275Z,20.89
2022-12-31T11:04:23.152Z,20.89
2022-12-31T11:07:16.994Z,20.86
2022-12-31T11:09:55.847Z,20.79
2022-12-31T11:12:41.147Z,20.69
2022-12-31T11:15:42.882Z,20.56
2022-12-31T11:18:27.271Z,20.53
2022-12-31T11:21:09.082Z,20.61
2022-12-31T11:23:44.938Z,20.65
2022-12-31T11:26:17.626Z,20.66
2022-12-31T11:28:44.565Z,20.65
2022-12-31T11:31:51.015Z,20.51
2022-12-31T11:34:24.481Z,20.60
2022-12-31T11:37:29.259Z,20.62
2022-12-31T11:39:58.682Z,20.71
2022-12-31T11:42:55.549Z,20.55
2022-12-31T11:45:50.231Z,20.54
2022-12-31T11:48:31.778Z,20.46
2022-12-31T11:51:01.750Z,20.45
2022-12-31T11:53:48.076Z,20.39
2022-12-31T11:56:21.253Z,20.36
2022-12-31T11:58:57.458Z,20.34
2022-12-31T12:01:32.147Z,20.32
2022-12-31T12:04:02.373Z,20.31
2022-12-31T12:06:32.268Z,20.28
2022-12-31T12:09:10.613Z,20.35
2022-12-31T12:11:40.940Z,20.33
2022-12-31T12:14:31.083Z,20.30
2022-12-31T12:17:04.356Z,20.35
2022-12-31T12:19:33.177Z,20.41
2022-12-31T12:22:11.156Z,20.34
2022-12-31T12:24:38.017Z,20.33
2022-12-31T12:27:05.159Z,20.30
2022-12-31T12:29:35.717Z,20.27
2022-12-31T12:32:25.087Z,20.22
2022-12-31T12:34:53.119Z,20.23
2022-12-31T12:37:34.511Z,20.21
2022-12-31T12:40:09.553Z,20.23
2022-12-31T12:42:36.376Z,20.24
2022-12-31T12:45:07.288Z,20.21
2022-12-31T12:47:35.111Z,20.20
2022-12-31T12:50:03.218Z,20.20
2022-12-31T12:52:29.952Z,20.21
2022-12-31T12:55:02.531Z,20.23
2022-12-31T12:57:45.415Z,20.24
2022-12-31T13:00:41.750Z,20.19
2022-12-31T13:03:23.049Z,20.20
2022-12-31T13:06:15.598Z,20.22
2022-12-31T13:08:48.137Z,20.22
2022-12-31T13:11:51.767Z,20.24
2022-12-31T13:14:30.896Z,20.22
2022-12-31T13:17:17.873Z,20.24
2022-12-31T13:20:02.445Z,20.27
2022-12-31T13:22:44.252Z,20.23
2022-12-31T13:25:27.839Z,20.21
2022-12-31T13:28:00.186Z,20.18
2022-12-31T13:30:38.117Z,20.19
2022-12-31T13:33:16.345Z,20.19
2022-12-31T13:35:52.357Z,20.18
2022-12-31T13:38:40.994Z,20.21
2022-12-31T13:41:19.713Z,20.18
2022-12-31T13:43:54.262Z,20.20
2022-12-31T13:46:44.995Z,20.19
2022-12-31T13:49:26.691Z,20.19
2022-12-31T13:52:03.913Z,20.19
2022-12-31T13:54:54.159Z,20.18
2022-12-31T13:57:41.157Z,20.21
2022-12-31T14:00:23.910Z,20.19
2022-12-31T14:02:59.633Z,20.24
2022-12-31T14:05:35.372Z,20.24
2022-12-31T14:08:05.047Z,20.22
2022-12-31T14:10:40.316Z,20.22
2022-12-31T14:13:34.380Z,20.23
2022-12-31T14:16:01.668Z,20.22
2022-12-31T14:18:44.924Z,20.22
2022-12-31T14:21:19.826Z,20.30
2022-12-31T14:23:55.704Z,20.16
2022-12-31T14:26:31.310Z,19.87
2022-12-31T14:29:03.030Z,19.69
2022-12-31T14:31:48.132Z,19.62
2022-12-31T14:34:36.488Z,19.55
2022-12-31T14:37:21.844Z,19.57
2022-12-31T14:40:15.740Z,19.65
2022-12-31T14:43:10.718Z,19.75
2022-12-31T14:46:04.299Z,19.74
2022-12-31T14:48:48.346Z,19.74
2022-12-31T14:51:15.815Z,19.84
2022-12-31T14:53:53.627Z,19.83
2022-12-31T14:56:32.466Z,19.90
2022-12-31T14:59:04.001Z,20.03
2022-12-31T15:01:30.946Z,20.09
2022-12-31T15:03:58.484Z,20.20
2022-12-31T15:06:40.376Z,20.15
2022-12-31T15:09:38.048Z,20.13
2022-12-31T15:12:51.528Z,20.15
2022-12-31T15:15:33.275Z,20.00
2022-12-31T15:18:19.006Z,19.92
2022-12-31T15:20:57.890Z,19.87
2022-12-31T15:23:33.072Z,19.85
2022-12-31T15:26:01.719Z,19.82
2022-12-31T15:28:40.992Z,19.77
2022-12-31T15:31:18.088Z,19.76
2022-12-31T15:34:04.624Z,19.74
2022-12-31T15:36:32.935Z,19.72
2022-12-31T15:39:11.836Z,19.72
2022-12-31T15:42:18.743Z,19.71
2022-12-31T15:44:44.112Z,19.68
2022-12-31T15:47:22.362Z,19.69
2022-12-31T15:49:50.986Z,19.68
2022-12-31T15:52:25.545Z,19.66
2022-12-31T15:54:57.256Z,19.64
2022-12-31T15:57:38.225Z,19.67
2022-12-31T16:00:14.873Z,19.67
2022-12-31T16:02:43.293Z,19.67
2022-12-31T16:05:22.596Z,19.68
2022-12-31T16:07:56.566Z,19.67
2022-12-31T16:10:31.992Z,19.69
2022-12-31T16:13:00.040Z,19.70
2022-12-31T16:15:30.470Z,19.73
2022-12-31T16:18:00.389Z,19.71
2022-12-31T16:20:33.702Z,19.70
2022-12-31T16:23:03.251Z,19.68
2022-12-31T16:25:33.677Z,19.67
2022-12-31T16:28:02.823Z,19.68
2022-12-31T16:30:32.317Z,19.69
2022-12-31T16:33:01.618Z,19.72
2022-12-31T16:35:34.319Z,19.74
2022-12-31T16:38:12.684Z,19.72
2022-12-31T16:40:42.657Z,19.74
2022-12-31T16:43:27.466Z,19.74
2022-12-31T16:46:07.248Z,19.72
2022-12-31T16:48:34.469Z,19.73
2022-12-31T16:51:01.472Z,19.73
2022-12-31T16:53:30.629Z,19.77
2022-12-31T16:56:09.184Z,19.79
2022-12-31T16:58:45.405Z,19.78
2022-12-31T17:01:23.743Z,19.95
2022-12-31T17:06:23.325Z,20.25
2022-12-31T17:08:56.274Z,20.33
2022-12-31T17:11:32.299Z,20.34
2022-12-31T17:14:13.531Z,20.47
2022-12-31T17:17:02.614Z,20.55
2022-12-31T17:19:42.436Z,20.54
2022-12-31T17:22:32.968Z,20.58
2022-12-31T17:25:33.390Z,20.54
2022-12-31T17:28:07.865Z,20.54
2022-12-31T17:30:36.463Z,20.49
2022-12-31T17:33:04.583Z,20.47
2022-12-31T17:35:52.153Z,20.45
2022-12-31T17:38:21.764Z,20.42
2022-12-31T17:41:14.265Z,20.53
2022-12-31T17:43:42.645Z,20.48
2022-12-31T17:46:12.959Z,20.49
2022-12-31T17:48:41.054Z,20.51
2022-12-31T17:51:08.190Z,20.54
2022-12-31T17:53:35.341Z,20.60
2022-12-31T17:56:05.577Z,20.64
2022-12-31T17:58:42.600Z,20.62
2022-12-31T18:01:10.025Z,20.65
2022-12-31T18:03:36.931Z,20.67
2022-12-31T18:06:05.488Z,20.59
2022-12-31T18:08:32.334Z,20.51
2022-12-31T18:10:59.199Z,20.59
2022-12-31T18:13:27.778Z,20.62
2022-12-31T18:15:55.519Z,20.68
2022-12-31T18:18:25.850Z,20.69
2022-12-31T18:20:56.583Z,20.71
2022-12-31T18:23:27.803Z,20.74
2022-12-31T18:25:55.055Z,20.66
2022-12-31T18:28:21.957Z,20.70
2022-12-31T18:30:49.574Z,20.70
2022-12-31T18:33:22.297Z,20.73
2022-12-31T18:36:09.867Z,20.73
2022-12-31T18:38:36.942Z,20.65
2022-12-31T18:41:04.352Z,20.66
2022-12-31T18:43:33.633Z,20.64
2022-12-31T18:46:00.534Z,20.63
2022-12-31T18:48:27.378Z,20.63
2022-12-31T18:50:54.173Z,20.56
2022-12-31T18:53:23.105Z,20.59
2022-12-31T18:55:57.452Z,20.53
2022-12-31T18:58:24.731Z,20.59
2022-12-31T19:00:52.384Z,20.56
2022-12-31T19:03:22.502Z,20.66
2022-12-31T19:05:50.964Z,20.77
2022-12-31T19:08:22.487Z,20.77
2022-12-31T19:10:51.701Z,20.75
2022-12-31T19:13:19.508Z,20.70
2022-12-31T19:15:47.371Z,20.68
2022-12-31T19:18:14.007Z,20.72
2022-12-31T19:20:41.507Z,20.80
2022-12-31T19:23:18.989Z,20.61
2022-12-31T19:25:46.570Z,20.71
2022-12-31T19:28:17.647Z,20.77
2022-12-31T19:30:44.767Z,20.79
2022-12-31T19:33:11.836Z,20.83
2022-12-31T19:35:40.220Z,20.83
2022-12-31T19:38:15.622Z,20.81
2022-12-31T19:40:42.251Z,20.84
2022-12-31T19:43:11.841Z,20.84
2022-12-31T19:45:38.567Z,20.84
2022-12-31T19:48:05.302Z,20.86
2022-12-31T19:50:31.975Z,20.83
2022-12-31T19:52:58.968Z,20.81
2022-12-31T19:55:26.460Z,20.83
2022-12-31T19:57:53.498Z,20.83
2022-12-31T20:00:20.687Z,20.84
2022-12-31T20:02:48.084Z,20.86
2022-12-31T20:05:19.604Z,20.86
2022-12-31T20:07:46.702Z,20.88
2022-12-31T20:10:13.457Z,20.87
2022-12-31T20:12:44.369Z,20.83
2022-12-31T20:15:11.943Z,20.81
2022-12-31T20:17:38.620Z,20.76
2022-12-31T20:20:06.860Z,20.78
2022-12-31T20:22:33.558Z,20.79
2022-12-31T20:25:00.243Z,20.80
2022-12-31T20:27:27.173Z,20.78
2022-12-31T20:29:53.808Z,20.76
2022-12-31T20:32:20.501Z,20.78
2022-12-31T20:34:47.171Z,20.78
2022-12-31T20:37:13.863Z,20.77
2022-12-31T20:39:40.630Z,20.78
2022-12-31T20:42:07.308Z,20.78
2022-12-31T20:44:33.977Z,20.67
2022-12-31T20:47:00.696Z,20.70
2022-12-31T20:49:52.541Z,20.66
2022-12-31T20:52:14.364Z,20.62
2022-12-31T20:54:41.043Z,20.68
2022-12-31T20:57:08.462Z,20.69
2022-12-31T20:59:35.102Z,20.69
2022-12-31T21:04:48.440Z,20.67
2022-12-31T21:07:15.205Z,20.69
2022-12-31T21:09:41.823Z,20.56
2022-12-31T21:12:27.867Z,20.61
2022-12-31T21:14:54.506Z,20.66
2022-12-31T21:17:21.126Z,20.56
2022-12-31T21:19:47.836Z,20.66
2022-12-31T21:22:14.445Z,20.68
2022-12-31T21:24:41.124Z,20.65
2022-12-31T21:27:07.759Z,20.63
2022-12-31T21:29:35.511Z,20.64
2022-12-31T21:32:03.752Z,20.65
2022-12-31T21:34:30.382Z,20.66
2022-12-31T21:36:57.003Z,20.62
2022-12-31T21:39:23.649Z,20.52
2022-12-31T21:41:52.994Z,20.61
2022-12-31T21:44:21.066Z,20.60
2022-12-31T21:47:33.365Z,20.61
2022-12-31T21:49:42.725Z,20.48
2022-12-31T21:52:27.571Z,20.55
2022-12-31T21:55:13.645Z,20.52
2022-12-31T21:58:07.177Z,20.54
2022-12-31T22:00:45.677Z,20.59
2022-12-31T22:03:24.740Z,20.58
2022-12-31T22:05:55.975Z,20.54
2022-12-31T22:08:22.685Z,20.52
2022-12-31T22:10:52.855Z,20.55
2022-12-31T22:13:19.893Z,20.52
2022-12-31T22:15:47.448Z,20.56
2022-12-31T22:18:14.705Z,20.54
2022-12-31T22:20:41.439Z,20.55
2022-12-31T22:23:08.561Z,20.54
2022-12-31T22:25:36.054Z,20.49
2022-12-31T22:30:50.095Z,20.49
2022-12-31T22:33:16.963Z,20.48
2022-12-31T22:35:43.804Z,20.45
2022-12-31T22:38:12.381Z,20.40
2022-12-31T22:40:39.381Z,20.48
2022-12-31T22:43:06.002Z,20.47
2022-12-31T22:45:32.624Z,20.39
2022-12-31T22:47:59.300Z,20.43
2022-12-31T22:50:25.936Z,20.51
2022-12-31T22:52:52.571Z,20.40
2022-12-31T22:55:19.365Z,20.38
2022-12-31T22:57:46.133Z,20.39
2022-12-31T23:00:13.763Z,20.32
2022-12-31T23:02:42.241Z,20.39
2022-12-31T23:05:15.843Z,20.35
2022-12-31T23:07:43.246Z,20.38
2022-12-31T23:10:29.421Z,20.41
2022-12-31T23:12:56.099Z,20.43
2022-12-31T23:15:41.350Z,20.47
2022-12-31T23:18:26.449Z,20.46
2022-12-31T23:21:11.490Z,20.47
2022-12-31T23:23:38.115Z,20.42
2022-12-31T23:26:04.882Z,20.37
2022-12-31T23:28:31.574Z,20.35
2022-12-31T23:30:58.256Z,20.36
2022-12-31T23:33:26.145Z,20.41
2022-12-31T23:36:03.690Z,20.42
2022-12-31T23:38:30.333Z,20.45
2022-12-31T23:40:56.937Z,20.46
2022-12-31T23:43:23.548Z,20.47
2022-12-31T23:45:51.142Z,20.45
2022-12-31T23:48:17.953Z,20.44
2022-12-31T23:50:50.830Z,20.43
2022-12-31T23:53:19.593Z,20.42
2022-12-31T23:55:46.218Z,20.35
2022-12-31T23:58:12.885Z,20.35
